Meteo Giornale » Osservazioni meteo Stati Uniti (USA) » Copper Mountain Red Cliff Pass
ore: 21:15 - Osservazioni Meteo Copper Mountain Red Cliff Pass
Lat. 39° 28' N Lon. 106° 9' W Alt. 3680 metri s.l.m.
6 °C
Nuvoloso
Temp. 24 Ore
2 °C
12 °C
Sud-Est
18.5 Km/h
Dew point 2 °C
Umidità 75 %
Visibilità 10 Km
Il sole sorge alle ore 06:32
Il sole tramonta alle ore 19:37
| Data e Ora | Cielo e Fenomeni | T °C | DP °C | Um. % | Pres. hPa | Vis. km | Vento km/h | |
|---|---|---|---|---|---|---|---|---|
| Oggi h: 21:15 | Nuvoloso | 6 | 2 | 75 | 1036 | 10 | SE 18.5 | |
| Oggi h: 20:55 | Coperto | 5 | 2 | 80 | 1036 | 10 | SE 13 | |
| Oggi h: 20:35 | Coperto | 5 | 2 | 80 | 1036 | 10 | SE 7.4 | |
| Oggi h: 20:15 | Coperto | 5 | 2 | 80 | 1037 | 10 | SE 9.3 | |
| Oggi h: 19:55 | Pioggia | 4 | 3 | 93 | 1037 | 10 | SE 13 | |
| Oggi h: 19:35 | Pioggia | 4 | 3 | 93 | 1037 | 6 | SE 27.8 | |
| Oggi h: 19:15 | Pioggia | 6 | 5 | 93 | 1037 | 5 | SE 13 | |
| Oggi h: 18:55 | Pioggia | 6 | 5 | 93 | 1037 | 2 | E 9.3 | |
| Oggi h: 18:35 | Pioviggine | 6 | 5 | 93 | 1037 | 2 | N 5.5 | |
| Oggi h: 18:15 | Molto Nuvoloso | 6 | 5 | 93 | 1037 | 10 | N 0 | |
| Oggi h: 17:55 | Molto Nuvoloso | 6 | 5 | 93 | 1037 | 10 | N 0 | |
| Oggi h: 17:35 | Coperto | 6 | 4 | 86 | 1037 | 10 | N 0 | |
| Oggi h: 17:15 | Coperto | 6 | 4 | 86 | 1037 | 10 | N/NE 7.4 | |
| Oggi h: 16:55 | Pioggia | 5 | 3 | 86 | 1037 | 11 | S 11.1 | |
| Oggi h: 16:35 | Pioggia | 6 | 3 | 81 | 1037 | 8 | S/SE 33.3 | |
| Oggi h: 16:15 | Pioggia | 8 | 3 | 70 | 1037 | 10 | S/SO 11.1 | |
| Oggi h: 15:55 | Coperto | 9 | 2 | 61 | 1037 | 10 | O/NO 13 | |
| Oggi h: 15:35 | Coperto | 10 | 2 | 57 | 1037 | 10 | O/NO 22.2 | |
| Oggi h: 15:15 | Coperto | 10 | 2 | 57 | 1037 | 10 | O/NO 22.2 | |
| Oggi h: 14:55 | Coperto | 11 | 0 | 46 | 1037 | 10 | O/NO 20.3 | |
| Oggi h: 14:35 | Molto Nuvoloso | 12 | -1 | 40 | 1037 | 10 | SE 9.3 | |
| Oggi h: 14:15 | Molto Nuvoloso | 12 | -1 | 40 | 1037 | 10 | S/SE 7.4 | |
| Oggi h: 13:55 | Coperto | 12 | -1 | 40 | 1038 | 10 | S 14.8 | |
| Oggi h: 13:35 | Coperto | 12 | -1 | 40 | 1038 | 10 | SE 14.8 | |
| Oggi h: 13:15 | Molto Nuvoloso | 12 | 0 | 43 | 1038 | 10 | S/SE 11.1 | |
| Oggi h: 12:55 | Molto Nuvoloso | 12 | 0 | 43 | 1038 | 10 | S/SE 14.8 | |
| Oggi h: 12:35 | Molto Nuvoloso | 12 | 0 | 43 | 1039 | 10 | S/SE 20.3 | |
| Oggi h: 12:15 | Coperto | 11 | 0 | 46 | 1039 | 10 | S/SE 16.7 | |
| Oggi h: 11:55 | Molto Nuvoloso | 10 | 0 | 49 | 1039 | 10 | S/SO 11.1 | |
| Oggi h: 11:35 | Molto Nuvoloso | 9 | 1 | 57 | 1039 | 10 | S/SE 13 | |
| Oggi h: 11:15 | Molto Nuvoloso | 9 | 1 | 57 | 1039 | 10 | N 5.5 | |
| Oggi h: 10:55 | Molto Nuvoloso | 9 | 1 | 57 | 1039 | 10 | SE 13 | |
| Oggi h: 10:35 | Nuvoloso | 8 | 1 | 61 | 1039 | 10 | E/SE 13 | |
| Oggi h: 10:15 | Nuvoloso | 9 | 2 | 61 | 1039 | 10 | SE 13 | |
| Oggi h: 09:55 | Molto Nuvoloso | 8 | 2 | 65 | 1038 | 10 | N 5.5 | |
| Oggi h: 09:35 | Molto Nuvoloso | 8 | 1 | 61 | 1038 | 10 | N 5.5 | |
| Oggi h: 09:15 | Nuvoloso | 7 | 1 | 65 | 1038 | 10 | SE 11.1 | |
| Oggi h: 08:55 | Molto Nuvoloso | 6 | 1 | 70 | 1038 | 10 | S 13 | |
| Oggi h: 08:35 | Nuvoloso | 6 | 1 | 70 | 1038 | 10 | S/SE 14.8 | |
| Oggi h: 08:15 | Nuvoloso | 6 | 1 | 70 | 1038 | 10 | S 13 | |
| Oggi h: 07:55 | Sereno | 6 | 1 | 70 | 1038 | 10 | N 5.5 | |
| Oggi h: 07:35 | Nuvoloso | 6 | 0 | 65 | 1037 | 10 | SO 9.3 | |
| Oggi h: 07:15 | Nuvoloso | 6 | 0 | 65 | 1037 | 10 | SO 14.8 | |
| Oggi h: 06:55 | Sereno | 6 | 0 | 65 | 1037 | 10 | SO 18.5 | |
| Oggi h: 06:35 | Sereno | 6 | 0 | 65 | 1037 | 10 | S/SO 14.8 | |
| Oggi h: 06:15 | Sereno | 6 | 0 | 65 | 1037 | 10 | S 11.1 | |
| Oggi h: 05:55 | Sereno | 6 | 0 | 65 | 1037 | 10 | S 11.1 | |
| Oggi h: 05:35 | Sereno | 6 | 0 | 65 | 1037 | 10 | S/SO 11.1 | |
| Oggi h: 05:15 | Sereno | 6 | 0 | 65 | 1037 | 10 | S 13 | |
| Oggi h: 04:55 | Nuvoloso | 6 | 0 | 65 | 1037 | 10 | S/SO 14.8 | |
| Oggi h: 04:35 | Sereno | 6 | 0 | 65 | 1036 | 10 | S/SO 14.8 | |
| Oggi h: 04:15 | Sereno | 6 | 0 | 65 | 1036 | 10 | SO 24 | |
| Oggi h: 03:55 | Sereno | 6 | 0 | 65 | 1036 | 10 | SO 18.5 | |
| Oggi h: 03:35 | Sereno | 6 | 0 | 65 | 1036 | 10 | SO 20.3 | |
| Oggi h: 03:15 | Sereno | 5 | 1 | 75 | 1036 | 10 | S 13 | |
| Oggi h: 02:55 | Sereno | 5 | 1 | 75 | 1036 | 10 | S/SO 18.5 | |
| Oggi h: 02:35 | Sereno | 5 | 1 | 75 | 1036 | 10 | S/SO 14.8 | |
| Oggi h: 02:15 | Sereno | 5 | 1 | 75 | 1036 | 10 | S 13 | |
| Oggi h: 01:55 | Sereno | 5 | 2 | 80 | 1037 | 10 | S 24 | |
| Oggi h: 01:35 | Sereno | 5 | 1 | 75 | 1037 | 10 | S 22.2 | |
| Oggi h: 01:15 | Sereno | 5 | 1 | 75 | 1037 | 10 | S/SE 24 | |
| Oggi h: 00:55 | Sereno | 5 | 1 | 75 | 1037 | 10 | S 16.7 | |
| Oggi h: 00:35 | Sereno | 5 | 1 | 75 | 1037 | 10 | S 14.8 | |
| Oggi h: 00:15 | Sereno | 4 | 1 | 80 | 1037 | 10 | SE 14.8 | |
| Ieri h: 23:55 | Nuvoloso | 3 | 1 | 86 | 1037 | 10 | S 13 | |
| Ieri h: 23:35 | Coperto | 3 | 1 | 86 | 1038 | 10 | N 0 | |
| Ieri h: 23:15 | Pioviggine | 3 | 1 | 86 | 1038 | 10 | O 7.4 | |
| Ieri h: 22:55 | Nuvoloso | 3 | 2 | 93 | 1038 | 10 | S 9.3 | |
| Ieri h: 22:35 | Molto Nuvoloso | 2 | 2 | 100 | 1038 | 10 | SE 9.3 | |
| Ieri h: 22:15 | Foschia | 2 | 2 | 100 | 1038 | 3 | N 0 | |
| Ieri h: 21:55 | Molto Nuvoloso | 3 | 2 | 93 | 1039 | 10 | O 20.3 | |
| Ieri h: 21:35 | Pioggia | 3 | 2 | 93 | 1039 | 5 | N 0 | |



